Terminal Aerodrome Forecast
Issued by NWS

Home | Current Version | Previous Version | Text Only | Print | Product List | Glossary On
Versions: 1 2 3 4 5 6 7 8 9 10 11 12 13 14 15 16 17 18 19 20 21 22 23 24 25 26 27 28 29 30
000
FTUS41 KPHI 131300 AAA
TAFMIV
TAF AMD
KMIV 131304Z 1313/1412 19006KT P6SM BKN012 BKN100
     FM131600 19010G18KT P6SM SCT040
     FM132300 19010KT P6SM BKN045
      TEMPO 1400/1402 3SM TSRA BR OVC020CB
     FM140200 18006KT P6SM -SHRA OVC035
     FM140400 VRB03KT 4SM BR SCT035 BKN100=

USA.gov is the U.S. government's official web portal to all federal, state and local government web resources and services.